createdAt,value
2022-11-23T00:00:02.167Z,7.55
2022-11-23T00:00:14.679Z,7.32
2022-11-23T00:00:27.018Z,6.75
2022-11-23T00:00:39.063Z,7.45
2022-11-23T00:00:51.439Z,8.63
2022-11-23T00:01:21.965Z,9.45
2022-11-23T00:01:36.205Z,7.97
2022-11-23T00:01:48.568Z,7.75
2022-11-23T00:02:00.576Z,7.25
2022-11-23T00:02:13.075Z,6.22
2022-11-23T00:02:25.043Z,5.97
2022-11-23T00:02:37.344Z,4.85
2022-11-23T00:02:55.721Z,6.25
2022-11-23T00:03:07.635Z,6.28
2022-11-23T00:03:19.635Z,5.60
2022-11-23T00:03:31.499Z,6.80
2022-11-23T00:03:44.862Z,7.35
2022-11-23T00:04:00.242Z,7.50
2022-11-23T00:04:13.182Z,7.18
2022-11-23T00:04:25.792Z,5.75
2022-11-23T00:04:38.115Z,6.15
2022-11-23T00:04:50.053Z,9.05
2022-11-23T00:05:02.335Z,9.55
2022-11-23T00:05:14.289Z,6.35
2022-11-23T00:05:28.606Z,6.07
2022-11-23T00:05:40.614Z,6.43
2022-11-23T00:05:52.543Z,7.15
2022-11-23T00:06:04.530Z,6.57
2022-11-23T00:06:17.351Z,6.70
2022-11-23T00:06:29.559Z,6.28
2022-11-23T00:06:42.099Z,6.30
2022-11-23T00:06:54.094Z,6.93
2022-11-23T00:07:06.057Z,6.25
2022-11-23T00:07:18.161Z,5.40
2022-11-23T00:07:30.129Z,6.20
2022-11-23T00:07:42.123Z,6.60
2022-11-23T00:07:54.417Z,5.97
2022-11-23T00:08:06.394Z,6.03
2022-11-23T00:08:18.407Z,6.60
2022-11-23T00:08:30.295Z,7.45
2022-11-23T00:08:43.467Z,7.53
2022-11-23T00:08:55.425Z,6.10
2022-11-23T00:09:09.757Z,5.95
2022-11-23T00:09:22.067Z,7.20
2022-11-23T00:09:34.170Z,8.43
2022-11-23T00:09:46.471Z,9.13
2022-11-23T00:09:58.353Z,8.38
2022-11-23T00:10:10.644Z,7.28
2022-11-23T00:10:22.775Z,9.10
2022-11-23T00:10:34.706Z,8.57
2022-11-23T00:10:46.632Z,8.93
2022-11-23T00:10:59.545Z,6.88
2022-11-23T00:11:11.811Z,8.98
2022-11-23T00:11:26.225Z,10.30
2022-11-23T00:11:38.272Z,10.57
2022-11-23T00:11:50.171Z,7.00
2022-11-23T00:12:02.087Z,7.55
2022-11-23T00:12:14.047Z,6.82
2022-11-23T00:12:25.923Z,6.78
2022-11-23T00:12:38.394Z,6.45
2022-11-23T00:12:50.438Z,6.65
2022-11-23T00:13:02.485Z,6.97
2022-11-23T00:13:14.367Z,7.10
2022-11-23T00:13:26.782Z,6.32
2022-11-23T00:13:40.839Z,5.47
2022-11-23T00:13:54.061Z,7.30
2022-11-23T00:14:06.441Z,8.68
2022-11-23T00:14:18.392Z,6.57
2022-11-23T00:14:30.427Z,5.55
2022-11-23T00:14:42.547Z,5.40
2022-11-23T00:14:54.594Z,6.20
2022-11-23T00:15:07.632Z,6.45
2022-11-23T00:15:19.765Z,5.43
2022-11-23T00:15:32.395Z,5.63
2022-11-23T00:15:44.549Z,6.30
2022-11-23T00:15:56.570Z,6.70
2022-11-23T00:16:19.568Z,6.15
2022-11-23T00:16:31.979Z,5.85
2022-11-23T00:16:44.283Z,4.85
2022-11-23T00:16:56.223Z,5.80
2022-11-23T00:17:08.346Z,6.60
2022-11-23T00:17:20.258Z,6.15
2022-11-23T00:17:32.494Z,6.50
2022-11-23T00:17:48.605Z,6.80
2022-11-23T00:18:00.580Z,7.55
2022-11-23T00:18:12.713Z,7.68
2022-11-23T00:18:24.723Z,7.63
2022-11-23T00:18:36.773Z,8.38
2022-11-23T00:18:48.983Z,8.45
2022-11-23T00:19:02.485Z,7.22
2022-11-23T00:19:14.462Z,7.40
2022-11-23T00:19:26.705Z,7.50
2022-11-23T00:19:38.594Z,8.18
2022-11-23T00:19:50.503Z,7.38
2022-11-23T00:20:02.395Z,6.22
2022-11-23T00:20:14.476Z,5.32
2022-11-23T00:20:27.049Z,5.70
2022-11-23T00:20:39.588Z,6.05
2022-11-23T00:20:51.753Z,7.07
2022-11-23T00:21:12.426Z,6.07
2022-11-23T00:21:26.477Z,4.60
2022-11-23T00:21:38.407Z,5.93
2022-11-23T00:21:50.906Z,6.47
2022-11-23T00:22:03.073Z,6.07
2022-11-23T00:22:15.122Z,4.78
2022-11-23T00:22:27.007Z,5.53
2022-11-23T00:22:39.237Z,6.20
2022-11-23T00:22:51.202Z,6.97
2022-11-23T00:23:03.561Z,6.88
2022-11-23T00:23:15.444Z,5.97
2022-11-23T00:23:27.431Z,5.55
2022-11-23T00:23:39.677Z,6.30
2022-11-23T00:23:52.566Z,6.45
2022-11-23T00:24:04.891Z,6.57
2022-11-23T00:24:17.393Z,5.78
2022-11-23T00:24:29.409Z,5.47
2022-11-23T00:24:41.828Z,5.28
2022-11-23T00:24:53.827Z,3.95
2022-11-23T00:25:06.132Z,4.45
2022-11-23T00:25:18.214Z,5.30
2022-11-23T00:25:30.238Z,5.60
2022-11-23T00:25:45.490Z,5.70
2022-11-23T00:25:57.642Z,6.18
2022-11-23T00:26:09.854Z,5.43
2022-11-23T00:26:22.391Z,4.68
2022-11-23T00:26:34.378Z,5.40
2022-11-23T00:26:46.423Z,5.05
2022-11-23T00:26:58.343Z,5.07
2022-11-23T00:27:10.658Z,5.35
2022-11-23T00:27:22.810Z,5.78
2022-11-23T00:27:35.113Z,5.57
2022-11-23T00:27:47.035Z,4.97
2022-11-23T00:27:59.035Z,5.40
2022-11-23T00:28:10.927Z,6.22
2022-11-23T00:28:23.136Z,6.72
2022-11-23T00:28:38.891Z,8.02
2022-11-23T00:28:50.992Z,7.30
2022-11-23T00:29:02.886Z,6.30
2022-11-23T00:29:14.819Z,5.13
2022-11-23T00:29:27.320Z,5.45
2022-11-23T00:29:39.296Z,5.63
2022-11-23T00:29:51.339Z,5.30
2022-11-23T00:30:04.365Z,3.75
2022-11-23T00:30:16.629Z,4.55
2022-11-23T00:30:29.320Z,4.10
2022-11-23T00:30:41.193Z,4.32
2022-11-23T00:30:53.145Z,4.55
2022-11-23T00:31:09.454Z,4.85
2022-11-23T00:31:21.922Z,4.38
2022-11-23T00:31:33.790Z,4.72
2022-11-23T00:31:45.800Z,5.75
2022-11-23T00:31:57.704Z,6.32
2022-11-23T00:32:09.722Z,5.68
2022-11-23T00:32:21.627Z,3.92
2022-11-23T00:32:33.748Z,3.90
2022-11-23T00:32:45.630Z,3.97
2022-11-23T00:32:57.881Z,4.32
2022-11-23T00:33:10.163Z,3.85
2022-11-23T00:33:22.749Z,4.05
2022-11-23T00:33:34.884Z,3.97
2022-11-23T00:33:51.650Z,4.40
2022-11-23T00:34:03.759Z,5.75
2022-11-23T00:34:15.859Z,6.50
2022-11-23T00:34:28.126Z,5.20
2022-11-23T00:34:40.246Z,5.10
2022-11-23T00:34:52.169Z,4.85
2022-11-23T00:35:04.441Z,4.00
2022-11-23T00:35:16.557Z,3.97
2022-11-23T00:35:28.487Z,4.88
2022-11-23T00:35:40.406Z,5.00
2022-11-23T00:36:04.127Z,5.38
2022-11-23T00:36:16.573Z,4.40
2022-11-23T00:36:28.883Z,4.13
2022-11-23T00:36:40.797Z,3.85
2022-11-23T00:36:52.728Z,3.20
2022-11-23T00:37:04.869Z,3.75
2022-11-23T00:37:16.767Z,5.03
2022-11-23T00:37:28.778Z,5.13
2022-11-23T00:37:40.664Z,4.10
2022-11-23T00:37:52.564Z,4.18
2022-11-23T00:38:04.568Z,4.47
2022-11-23T00:38:16.489Z,3.55
2022-11-23T00:38:28.966Z,4.28
2022-11-23T00:38:42.467Z,4.05
2022-11-23T00:38:54.968Z,2.70
2022-11-23T00:39:06.935Z,2.60
2022-11-23T00:39:19.242Z,3.53
2022-11-23T00:39:31.583Z,5.88
2022-11-23T00:39:44.223Z,5.90
2022-11-23T00:39:56.175Z,4.72
2022-11-23T00:40:09.313Z,2.65
2022-11-23T00:40:21.282Z,3.60
2022-11-23T00:40:33.505Z,3.72
2022-11-23T00:40:45.418Z,4.18
2022-11-23T00:40:59.466Z,4.22
2022-11-23T00:41:23.039Z,4.18
2022-11-23T00:41:35.089Z,4.50
2022-11-23T00:41:47.516Z,3.60
2022-11-23T00:41:59.450Z,3.15
2022-11-23T00:42:11.373Z,3.15
2022-11-23T00:42:23.248Z,3.67
2022-11-23T00:42:37.989Z,4.18
2022-11-23T00:42:50.305Z,3.95
2022-11-23T00:43:02.380Z,4.22
2022-11-23T00:43:14.397Z,4.55
2022-11-23T00:43:27.270Z,4.68
2022-11-23T00:43:39.211Z,4.82
2022-11-23T00:43:51.741Z,5.82
2022-11-23T00:44:04.028Z,5.00
2022-11-23T00:44:16.135Z,3.70
2022-11-23T00:44:28.084Z,3.78
2022-11-23T00:44:40.103Z,5.05
2022-11-23T00:44:52.030Z,5.45
2022-11-23T00:45:04.291Z,5.47
2022-11-23T00:45:16.239Z,3.53
2022-11-23T00:45:28.126Z,4.22
2022-11-23T00:45:40.114Z,5.00
2022-11-23T00:46:02.907Z,5.65
2022-11-23T00:46:15.186Z,5.72
2022-11-23T00:46:28.169Z,6.53
2022-11-23T00:46:40.178Z,8.00
2022-11-23T00:46:52.065Z,6.75
2022-11-23T00:47:04.664Z,5.53
2022-11-23T00:47:16.758Z,4.30
2022-11-23T00:47:28.648Z,4.97
2022-11-23T00:47:40.613Z,5.57
2022-11-23T00:47:52.538Z,5.97
2022-11-23T00:48:04.738Z,5.13
2022-11-23T00:48:16.619Z,4.90
2022-11-23T00:48:28.508Z,4.53
2022-11-23T00:48:41.019Z,3.95
2022-11-23T00:48:55.658Z,4.78
2022-11-23T00:49:07.720Z,4.47
2022-11-23T00:49:19.656Z,4.63
2022-11-23T00:49:31.896Z,5.78
2022-11-23T00:49:44.016Z,6.32
2022-11-23T00:49:55.978Z,4.93
2022-11-23T00:50:08.185Z,4.68
2022-11-23T00:50:20.105Z,4.68
2022-11-23T00:50:32.530Z,6.28
2022-11-23T00:50:44.408Z,7.25
2022-11-23T00:50:56.287Z,6.05
2022-11-23T00:51:10.636Z,4.20
2022-11-23T00:51:29.148Z,3.88
2022-11-23T00:51:41.309Z,3.67
2022-11-23T00:51:53.189Z,4.43
2022-11-23T00:52:05.392Z,4.43
2022-11-23T00:52:17.287Z,4.88
2022-11-23T00:52:29.242Z,4.00
2022-11-23T00:52:41.125Z,3.90
2022-11-23T00:52:53.424Z,4.85
2022-11-23T00:53:05.290Z,5.65
2022-11-23T00:53:17.159Z,5.57
2022-11-23T00:53:29.274Z,5.15
2022-11-23T00:53:42.477Z,4.15
2022-11-23T00:53:54.436Z,3.72
2022-11-23T00:54:06.923Z,4.05
2022-11-23T00:54:18.882Z,3.58
2022-11-23T00:54:30.826Z,5.03
2022-11-23T00:54:42.743Z,5.57
2022-11-23T00:54:54.667Z,6.22
2022-11-23T00:55:06.999Z,6.85
2022-11-23T00:55:18.950Z,7.70
2022-11-23T00:55:30.822Z,8.82
2022-11-23T00:55:51.716Z,6.13
2022-11-23T00:56:04.523Z,6.13
2022-11-23T00:56:16.966Z,6.22
2022-11-23T00:56:30.097Z,5.60
2022-11-23T00:56:42.105Z,4.95
2022-11-23T00:56:54.123Z,5.00
2022-11-23T00:57:06.230Z,5.22
2022-11-23T00:57:18.161Z,5.50
2022-11-23T00:57:30.098Z,5.10
2022-11-23T00:57:41.984Z,4.07
2022-11-23T00:57:53.890Z,4.43
2022-11-23T00:58:06.098Z,4.60
2022-11-23T00:58:18.036Z,5.70
2022-11-23T00:58:30.531Z,5.72
2022-11-23T00:58:42.694Z,5.82
2022-11-23T00:58:56.899Z,4.78
2022-11-23T00:59:09.345Z,5.20
2022-11-23T00:59:21.323Z,4.93
2022-11-23T00:59:33.458Z,5.30
2022-11-23T00:59:45.809Z,5.85
2022-11-23T00:59:57.737Z,6.15
2022-11-23T01:00:12.479Z,5.63
2022-11-23T01:00:24.425Z,6.45
2022-11-23T01:00:36.395Z,5.03
2022-11-23T01:00:48.389Z,4.95
2022-11-23T01:01:05.625Z,4.87
2022-11-23T01:01:19.943Z,5.25
2022-11-23T01:01:36.930Z,5.63
2022-11-23T01:01:49.167Z,5.07
2022-11-23T01:02:01.197Z,4.68
2022-11-23T01:02:13.155Z,4.50
2022-11-23T01:02:25.084Z,5.45
2022-11-23T01:02:37.102Z,5.30
2022-11-23T01:02:49.242Z,4.28
2022-11-23T01:03:01.190Z,3.50
2022-11-23T01:03:14.620Z,4.13
2022-11-23T01:03:26.575Z,3.80
2022-11-23T01:03:41.868Z,4.60
2022-11-23T01:03:56.090Z,4.22
2022-11-23T01:04:09.037Z,3.63
2022-11-23T01:04:21.055Z,3.20
2022-11-23T01:04:32.987Z,4.05
2022-11-23T01:04:44.906Z,5.20
2022-11-23T01:04:56.787Z,5.10
2022-11-23T01:05:09.714Z,7.13
2022-11-23T01:05:22.246Z,6.28
2022-11-23T01:05:37.222Z,5.22
2022-11-23T01:05:49.428Z,6.45
2022-11-23T01:06:15.655Z,5.28
2022-11-23T01:06:31.827Z,3.15
2022-11-23T01:06:44.047Z,4.47
2022-11-23T01:06:59.396Z,4.78
2022-11-23T01:07:11.350Z,4.88
2022-11-23T01:07:23.534Z,4.97
2022-11-23T01:07:35.622Z,4.28
2022-11-23T01:07:47.691Z,4.85
2022-11-23T01:07:59.622Z,6.32
2022-11-23T01:08:11.654Z,6.90
2022-11-23T01:08:23.586Z,5.85
2022-11-23T01:08:36.100Z,4.72
2022-11-23T01:08:56.216Z,4.80
2022-11-23T01:09:13.263Z,4.25
2022-11-23T01:09:26.784Z,5.72
2022-11-23T01:09:38.745Z,5.43
2022-11-23T01:09:50.866Z,5.60
2022-11-23T01:10:02.840Z,5.57
2022-11-23T01:10:15.082Z,5.45
2022-11-23T01:10:27.018Z,5.22
2022-11-23T01:10:39.385Z,6.25
2022-11-23T01:10:51.334Z,6.47
2022-11-23T01:11:12.336Z,6.10
2022-11-23T01:11:26.899Z,5.82
2022-11-23T01:11:38.850Z,5.53
2022-11-23T01:11:50.835Z,6.07
2022-11-23T01:12:02.918Z,6.65
2022-11-23T01:12:14.785Z,6.22
2022-11-23T01:12:28.654Z,6.93
2022-11-23T01:12:40.860Z,6.90
2022-11-23T01:12:52.881Z,5.20
2022-11-23T01:13:05.056Z,6.07
2022-11-23T01:13:16.964Z,6.80
2022-11-23T01:13:29.288Z,5.28
2022-11-23T01:13:41.513Z,4.35
2022-11-23T01:13:53.722Z,3.42
2022-11-23T01:14:05.708Z,3.95
2022-11-23T01:14:17.705Z,4.32
2022-11-23T01:14:29.853Z,4.85
2022-11-23T01:14:41.795Z,6.47
2022-11-23T01:14:54.371Z,8.05
2022-11-23T01:15:06.845Z,7.30
2022-11-23T01:15:18.857Z,6.50
2022-11-23T01:15:31.121Z,6.72
2022-11-23T01:15:49.980Z,6.40
2022-11-23T01:16:02.189Z,5.07
2022-11-23T01:16:35.430Z,4.45
2022-11-23T01:16:47.894Z,7.47
2022-11-23T01:16:59.937Z,7.38
2022-11-23T01:17:13.116Z,5.88
2022-11-23T01:17:25.428Z,7.05
2022-11-23T01:17:37.314Z,6.68
2022-11-23T01:17:49.616Z,4.85
2022-11-23T01:18:01.541Z,5.07
2022-11-23T01:18:13.492Z,4.85
2022-11-23T01:18:25.909Z,6.13
2022-11-23T01:18:37.885Z,7.18
2022-11-23T01:18:58.024Z,8.52
2022-11-23T01:19:15.048Z,9.95
2022-11-23T01:19:27.006Z,10.93
2022-11-23T01:19:38.897Z,10.13
2022-11-23T01:19:51.109Z,10.80
2022-11-23T01:20:03.446Z,10.85
2022-11-23T01:20:15.667Z,11.73
2022-11-23T01:20:27.559Z,9.70
2022-11-23T01:20:39.550Z,9.93
2022-11-23T01:20:52.026Z,8.60
2022-11-23T01:21:03.939Z,8.30
2022-11-23T01:21:15.954Z,7.05
2022-11-23T01:21:31.966Z,6.28
2022-11-23T01:21:44.362Z,6.15
2022-11-23T01:21:56.480Z,6.25
2022-11-23T01:22:08.427Z,6.68
2022-11-23T01:22:20.469Z,7.05
2022-11-23T01:22:32.428Z,6.50
2022-11-23T01:22:44.447Z,6.70
2022-11-23T01:22:56.449Z,4.97
2022-11-23T01:23:08.403Z,6.10
2022-11-23T01:23:33.312Z,7.93
2022-11-23T01:23:45.380Z,7.25
2022-11-23T01:23:58.022Z,9.00
2022-11-23T01:24:15.954Z,10.10
2022-11-23T01:24:28.058Z,11.00
2022-11-23T01:24:40.203Z,9.68
2022-11-23T01:24:52.323Z,7.40
2022-11-23T01:25:05.073Z,6.40
2022-11-23T01:25:17.291Z,4.82
2022-11-23T01:25:29.384Z,5.45
2022-11-23T01:25:41.494Z,6.80
2022-11-23T01:25:57.017Z,7.32
2022-11-23T01:26:10.537Z,5.07
2022-11-23T01:26:23.991Z,3.97
2022-11-23T01:26:36.133Z,3.28
2022-11-23T01:26:55.559Z,3.33
2022-11-23T01:27:07.712Z,4.53
2022-11-23T01:27:19.762Z,5.53
2022-11-23T01:27:31.852Z,5.55
2022-11-23T01:27:44.022Z,4.07
2022-11-23T01:27:56.143Z,5.15
2022-11-23T01:28:08.454Z,6.78
2022-11-23T01:28:20.751Z,6.03
2022-11-23T01:28:33.223Z,5.78
2022-11-23T01:28:45.491Z,6.13
2022-11-23T01:28:57.779Z,8.32
2022-11-23T01:29:10.900Z,7.38
2022-11-23T01:29:24.315Z,4.97
2022-11-23T01:29:36.499Z,8.35
2022-11-23T01:29:48.660Z,8.02
2022-11-23T01:30:00.859Z,5.35
2022-11-23T01:30:13.503Z,5.32
2022-11-23T01:30:25.521Z,5.35
2022-11-23T01:30:37.882Z,5.35
2022-11-23T01:30:50.040Z,5.15
2022-11-23T01:31:10.401Z,6.97
2022-11-23T01:31:24.549Z,6.13
2022-11-23T01:31:40.596Z,5.22
2022-11-23T01:31:56.959Z,5.18
2022-11-23T01:32:08.999Z,5.18
2022-11-23T01:32:21.162Z,6.80
2022-11-23T01:32:33.254Z,5.95
2022-11-23T01:32:45.389Z,4.07
2022-11-23T01:32:57.510Z,5.18
2022-11-23T01:33:11.659Z,5.32
2022-11-23T01:33:23.680Z,5.68
2022-11-23T01:33:36.550Z,5.75
2022-11-23T01:33:52.608Z,5.35
2022-11-23T01:34:05.078Z,4.88
2022-11-23T01:34:17.885Z,4.50
2022-11-23T01:34:29.967Z,4.45
2022-11-23T01:34:42.128Z,4.57
2022-11-23T01:34:54.121Z,5.10
2022-11-23T01:35:06.843Z,7.05
2022-11-23T01:35:19.089Z,7.20
2022-11-23T01:35:31.400Z,6.55
2022-11-23T01:35:43.500Z,4.82
2022-11-23T01:35:55.519Z,5.50
2022-11-23T01:36:15.567Z,5.93
2022-11-23T01:36:32.451Z,5.40
2022-11-23T01:36:45.378Z,5.28
2022-11-23T01:36:57.647Z,5.35
2022-11-23T01:37:09.716Z,5.70
2022-11-23T01:37:21.788Z,5.60
2022-11-23T01:37:33.867Z,5.18
2022-11-23T01:37:45.936Z,4.30
2022-11-23T01:37:58.128Z,5.57
2022-11-23T01:38:15.158Z,5.95
2022-11-23T01:38:30.109Z,5.80
2022-11-23T01:38:43.536Z,6.03
2022-11-23T01:38:56.387Z,6.13
2022-11-23T01:39:09.012Z,6.40
2022-11-23T01:39:21.120Z,6.57
2022-11-23T01:39:35.595Z,7.47
2022-11-23T01:39:48.482Z,6.75
2022-11-23T01:40:00.706Z,6.50
2022-11-23T01:40:14.346Z,5.55
2022-11-23T01:40:26.540Z,6.47
2022-11-23T01:40:43.816Z,6.03
2022-11-23T01:40:55.928Z,6.03
2022-11-23T01:41:10.937Z,6.38
2022-11-23T01:41:28.907Z,5.43
2022-11-23T01:41:43.131Z,5.25
2022-11-23T01:42:01.233Z,5.65
2022-11-23T01:42:22.544Z,7.70
2022-11-23T01:42:49.788Z,5.43
2022-11-23T01:43:01.890Z,6.80
2022-11-23T01:43:18.509Z,5.65
2022-11-23T01:43:32.002Z,4.05
2022-11-23T01:43:44.958Z,3.92
2022-11-23T01:43:57.606Z,5.00
2022-11-23T01:44:24.636Z,4.90
2022-11-23T01:44:39.236Z,6.03
2022-11-23T01:44:52.169Z,5.75
2022-11-23T01:45:33.956Z,5.00
2022-11-23T01:46:02.932Z,4.20
2022-11-23T01:46:15.024Z,4.30
2022-11-23T01:46:27.274Z,5.22
2022-11-23T01:46:39.439Z,4.75
2022-11-23T01:46:51.577Z,4.68
2022-11-23T01:47:08.835Z,4.90
2022-11-23T01:47:20.976Z,6.53
2022-11-23T01:47:35.685Z,6.80
2022-11-23T01:47:47.785Z,6.13
2022-11-23T01:48:00.098Z,5.05
2022-11-23T01:48:20.214Z,5.78
2022-11-23T01:48:43.110Z,5.60
2022-11-23T01:48:55.147Z,4.35
2022-11-23T01:49:07.849Z,5.57
2022-11-23T01:49:20.004Z,5.28
2022-11-23T01:49:47.009Z,5.40
2022-11-23T01:49:59.233Z,5.55
2022-11-23T01:50:12.813Z,4.75
2022-11-23T01:50:25.744Z,4.82
2022-11-23T01:50:38.742Z,4.38
2022-11-23T01:50:53.094Z,4.40
2022-11-23T01:51:11.125Z,4.57
2022-11-23T01:51:24.633Z,4.55
2022-11-23T01:51:43.874Z,4.32
2022-11-23T01:51:59.974Z,6.03
2022-11-23T01:52:16.473Z,8.60
2022-11-23T01:52:28.545Z,7.90
2022-11-23T01:52:40.715Z,6.25
2022-11-23T01:52:52.966Z,5.82
2022-11-23T01:53:05.125Z,5.47
2022-11-23T01:53:17.826Z,5.80
2022-11-23T01:53:31.635Z,5.05
2022-11-23T01:53:47.586Z,3.63
2022-11-23T01:54:07.461Z,3.90
2022-11-23T01:54:27.226Z,3.67
2022-11-23T01:54:52.045Z,6.45
2022-11-23T01:55:08.505Z,5.22
2022-11-23T01:55:23.087Z,4.78
2022-11-23T01:55:35.832Z,5.07
2022-11-23T01:55:49.596Z,4.85
2022-11-23T01:56:04.824Z,5.00
2022-11-23T01:56:21.232Z,4.63
2022-11-23T01:56:52.733Z,3.85
2022-11-23T01:57:10.251Z,5.38
2022-11-23T01:57:28.162Z,3.90
2022-11-23T01:57:44.652Z,4.72
2022-11-23T01:57:56.952Z,5.60
2022-11-23T01:58:13.683Z,4.97
2022-11-23T01:58:29.483Z,5.57
2022-11-23T01:58:44.641Z,6.75
2022-11-23T01:59:00.312Z,7.00
2022-11-23T01:59:17.010Z,8.13
2022-11-23T01:59:31.062Z,7.85
2022-11-23T01:59:43.683Z,5.57
2022-11-23T01:59:57.190Z,6.15
2022-11-23T02:00:10.133Z,6.50
2022-11-23T02:00:22.740Z,7.00
2022-11-23T02:00:34.950Z,8.32
2022-11-23T02:00:47.853Z,7.88
2022-11-23T02:01:00.079Z,6.90
2022-11-23T02:01:14.546Z,5.60
2022-11-23T02:01:27.041Z,5.57
2022-11-23T02:01:39.361Z,5.35
2022-11-23T02:01:51.838Z,5.65
2022-11-23T02:02:04.684Z,5.55
2022-11-23T02:02:17.942Z,6.50
2022-11-23T02:02:34.860Z,5.85
2022-11-23T02:02:53.939Z,4.50
2022-11-23T02:03:07.192Z,3.65
2022-11-23T02:03:19.905Z,3.67
2022-11-23T02:03:33.011Z,3.63
2022-11-23T02:04:12.201Z,5.85
2022-11-23T02:04:29.679Z,4.25
2022-11-23T02:04:45.850Z,4.30
2022-11-23T02:05:01.139Z,4.93
2022-11-23T02:05:16.996Z,5.05
2022-11-23T02:05:35.329Z,4.43
2022-11-23T02:05:50.668Z,4.45
2022-11-23T02:06:07.743Z,4.40
2022-11-23T02:06:20.441Z,4.22
2022-11-23T02:06:33.781Z,5.67
2022-11-23T02:06:47.814Z,5.75
2022-11-23T02:07:02.109Z,4.32
2022-11-23T02:07:16.159Z,4.82
2022-11-23T02:07:29.413Z,5.38
2022-11-23T02:07:41.728Z,4.78
2022-11-23T02:07:54.291Z,4.57
2022-11-23T02:08:07.420Z,4.30
2022-11-23T02:08:20.239Z,4.32
2022-11-23T02:08:32.286Z,5.20
2022-11-23T02:08:45.274Z,5.30
2022-11-23T02:08:57.588Z,5.55
2022-11-23T02:09:09.612Z,5.43
2022-11-23T02:09:22.975Z,5.53
2022-11-23T02:09:36.142Z,5.80
2022-11-23T02:09:49.048Z,6.15
2022-11-23T02:10:01.333Z,4.57
2022-11-23T02:10:13.228Z,4.10
2022-11-23T02:10:25.282Z,3.97
2022-11-23T02:10:37.378Z,3.90
2022-11-23T02:10:49.395Z,3.85
2022-11-23T02:11:03.230Z,4.35
2022-11-23T02:11:16.778Z,5.18
2022-11-23T02:11:29.021Z,4.35
2022-11-23T02:11:41.136Z,4.53
2022-11-23T02:11:53.112Z,6.00
2022-11-23T02:12:11.160Z,6.07
2022-11-23T02:12:23.177Z,4.57
2022-11-23T02:12:35.068Z,4.82
2022-11-23T02:12:47.013Z,4.72
2022-11-23T02:13:08.338Z,5.78
2022-11-23T02:13:20.614Z,4.53
2022-11-23T02:13:32.591Z,4.00
2022-11-23T02:13:47.314Z,4.57
2022-11-23T02:14:00.202Z,6.97
2022-11-23T02:14:12.719Z,6.95
2022-11-23T02:14:25.218Z,7.70
2022-11-23T02:14:37.753Z,7.53
2022-11-23T02:14:49.877Z,7.32
2022-11-23T02:15:01.907Z,4.78
2022-11-23T02:15:13.938Z,4.65
2022-11-23T02:15:26.105Z,4.85
2022-11-23T02:15:38.658Z,5.15
2022-11-23T02:15:51.637Z,4.35
2022-11-23T02:16:04.245Z,3.75
2022-11-23T02:16:17.879Z,3.42
2022-11-23T02:16:30.305Z,3.85
2022-11-23T02:16:42.732Z,4.97
2022-11-23T02:16:58.294Z,4.40
2022-11-23T02:17:10.697Z,3.85
2022-11-23T02:17:22.685Z,5.35
2022-11-23T02:17:34.861Z,5.97
2022-11-23T02:17:47.023Z,5.07
2022-11-23T02:18:01.031Z,4.75
2022-11-23T02:18:16.843Z,5.90
2022-11-23T02:18:31.434Z,5.20
2022-11-23T02:18:46.858Z,4.25
2022-11-23T02:18:59.512Z,4.40
2022-11-23T02:19:34.950Z,4.60
2022-11-23T02:20:04.285Z,4.93
2022-11-23T02:20:18.010Z,6.70
2022-11-23T02:20:30.296Z,5.00
2022-11-23T02:20:45.044Z,4.03
2022-11-23T02:21:02.384Z,4.20
2022-11-23T02:21:14.516Z,5.10
2022-11-23T02:21:26.813Z,4.88
2022-11-23T02:21:41.008Z,3.83
2022-11-23T02:21:55.620Z,3.58
2022-11-23T02:22:14.574Z,3.20
2022-11-23T02:22:59.923Z,4.00
2022-11-23T02:23:33.491Z,4.22
2022-11-23T02:24:08.857Z,4.80
2022-11-23T02:24:28.416Z,5.00
2022-11-23T02:24:47.473Z,4.70
2022-11-23T02:25:03.043Z,5.40
2022-11-23T02:25:43.611Z,4.15
2022-11-23T02:26:13.638Z,4.45
2022-11-23T02:26:34.333Z,4.15
2022-11-23T02:26:46.417Z,4.28
2022-11-23T02:26:58.473Z,5.35
2022-11-23T02:27:10.906Z,6.05
2022-11-23T02:27:23.315Z,4.38
2022-11-23T02:27:35.234Z,4.32
2022-11-23T02:27:47.733Z,4.15
2022-11-23T02:28:01.423Z,4.25
2022-11-23T02:28:16.725Z,3.35
2022-11-23T02:29:00.703Z,4.18
2022-11-23T02:29:21.838Z,3.63
2022-11-23T02:29:34.883Z,4.40
2022-11-23T02:29:48.925Z,4.78
2022-11-23T02:30:02.318Z,4.13
2022-11-23T02:30:14.833Z,3.42
2022-11-23T02:30:28.506Z,3.10
2022-11-23T02:30:41.416Z,3.95
2022-11-23T02:30:55.097Z,4.43
2022-11-23T02:31:07.124Z,4.22
2022-11-23T02:31:19.205Z,5.10
2022-11-23T02:31:31.537Z,4.45
2022-11-23T02:31:43.995Z,3.58
2022-11-23T02:31:55.902Z,3.35
2022-11-23T02:32:07.860Z,3.47
2022-11-23T02:32:23.406Z,4.75
2022-11-23T02:32:36.188Z,4.53
2022-11-23T02:32:48.213Z,3.28
2022-11-23T02:33:04.240Z,3.38
2022-11-23T02:33:16.264Z,3.90
2022-11-23T02:33:28.450Z,3.63
2022-11-23T02:33:41.194Z,3.25
2022-11-23T02:33:53.134Z,3.35
2022-11-23T02:34:05.094Z,3.15
2022-11-23T02:34:18.167Z,3.30
2022-11-23T02:34:30.788Z,4.38
2022-11-23T02:34:42.669Z,4.25
2022-11-23T02:34:54.596Z,3.22
2022-11-23T02:35:06.699Z,3.70
2022-11-23T02:35:18.725Z,4.63
2022-11-23T02:35:30.655Z,4.50
2022-11-23T02:35:51.344Z,4.88
2022-11-23T02:36:23.711Z,4.13
2022-11-23T02:36:46.547Z,3.20
2022-11-23T02:36:59.063Z,4.90
2022-11-23T02:37:11.074Z,5.63
2022-11-23T02:37:23.293Z,4.38
2022-11-23T02:37:35.285Z,5.30
2022-11-23T02:37:48.238Z,4.80
2022-11-23T02:38:04.545Z,5.03
2022-11-23T02:38:18.092Z,7.10
2022-11-23T02:38:33.104Z,5.93
2022-11-23T02:38:45.236Z,3.80
2022-11-23T02:38:59.739Z,5.47
2022-11-23T02:39:11.787Z,7.65
2022-11-23T02:39:49.553Z,5.05
2022-11-23T02:40:04.598Z,3.25
2022-11-23T02:40:32.296Z,4.18
2022-11-23T02:40:44.405Z,2.78
2022-11-23T02:40:56.620Z,2.95
2022-11-23T02:41:08.594Z,3.35
2022-11-23T02:41:20.726Z,4.03
2022-11-23T02:41:41.819Z,4.50
2022-11-23T02:41:55.474Z,3.08
2022-11-23T02:42:07.342Z,2.63
2022-11-23T02:42:19.811Z,2.78
2022-11-23T02:42:32.367Z,2.50
2022-11-23T02:42:45.722Z,2.72
2022-11-23T02:42:58.493Z,2.83
2022-11-23T02:43:10.935Z,3.97
2022-11-23T02:43:22.939Z,4.30
2022-11-23T02:43:35.329Z,4.82
2022-11-23T02:43:53.092Z,5.63
2022-11-23T02:44:09.847Z,5.93
2022-11-23T02:44:42.085Z,4.50
2022-11-23T02:45:23.756Z,3.35
2022-11-23T02:45:50.432Z,3.03
2022-11-23T02:46:03.941Z,3.53
2022-11-23T02:46:15.932Z,2.70
2022-11-23T02:46:28.015Z,3.67
2022-11-23T02:46:39.943Z,4.72
2022-11-23T02:46:53.043Z,4.22
2022-11-23T02:47:06.473Z,5.47
2022-11-23T02:47:18.510Z,6.85
2022-11-23T02:47:30.773Z,7.15
2022-11-23T02:47:42.780Z,6.10
2022-11-23T02:47:54.902Z,6.00
2022-11-23T02:48:07.208Z,5.72
2022-11-23T02:48:19.378Z,4.45
2022-11-23T02:48:31.353Z,3.70
2022-11-23T02:48:43.270Z,3.65
2022-11-23T02:48:55.212Z,3.85
2022-11-23T02:49:07.122Z,3.70
2022-11-23T02:49:19.068Z,4.22
2022-11-23T02:49:31.313Z,4.78
2022-11-23T02:49:46.765Z,4.20
2022-11-23T02:49:58.646Z,4.10
2022-11-23T02:50:10.583Z,4.93
2022-11-23T02:50:22.676Z,5.38
2022-11-23T02:50:34.708Z,4.82
2022-11-23T02:50:47.122Z,5.28
2022-11-23T02:50:59.041Z,4.57
2022-11-23T02:51:11.093Z,4.10
2022-11-23T02:51:23.224Z,4.13
2022-11-23T02:51:35.243Z,4.35
2022-11-23T02:51:47.199Z,4.65
2022-11-23T02:51:59.460Z,6.35
2022-11-23T02:52:11.510Z,6.18
2022-11-23T02:52:23.725Z,5.97
2022-11-23T02:52:35.643Z,3.90
2022-11-23T02:52:47.948Z,4.45
2022-11-23T02:52:59.913Z,5.53
2022-11-23T02:53:12.694Z,5.55
2022-11-23T02:53:24.603Z,5.78
2022-11-23T02:53:36.587Z,4.97
2022-11-23T02:53:48.470Z,5.70
2022-11-23T02:54:00.450Z,6.78
2022-11-23T02:54:12.365Z,7.40
2022-11-23T02:54:24.341Z,6.40
2022-11-23T02:54:36.265Z,5.28
2022-11-23T02:54:48.280Z,4.18
2022-11-23T02:55:00.140Z,4.68
2022-11-23T02:55:12.206Z,4.57
2022-11-23T02:55:24.445Z,4.00
2022-11-23T02:55:36.392Z,3.40
2022-11-23T02:55:48.331Z,4.57
2022-11-23T02:56:00.451Z,5.05
2022-11-23T02:56:12.421Z,4.20
2022-11-23T02:56:24.330Z,3.63
2022-11-23T02:56:36.198Z,3.05
2022-11-23T02:56:48.066Z,3.30
2022-11-23T02:56:59.983Z,3.20
2022-11-23T02:57:12.509Z,3.38
2022-11-23T02:57:24.529Z,3.17
2022-11-23T02:57:36.739Z,3.35
2022-11-23T02:57:49.198Z,3.47
2022-11-23T02:58:01.685Z,3.97
2022-11-23T02:58:13.750Z,6.30
2022-11-23T02:58:25.683Z,7.40
2022-11-23T02:58:37.826Z,8.50
2022-11-23T02:58:49.769Z,6.25
2022-11-23T02:59:01.976Z,6.28
2022-11-23T02:59:13.900Z,4.80
2022-11-23T02:59:25.875Z,4.07
2022-11-23T02:59:37.789Z,4.35
2022-11-23T02:59:49.933Z,6.15
2022-11-23T03:00:02.012Z,5.47
2022-11-23T03:00:14.423Z,4.57
2022-11-23T03:00:26.427Z,3.72
2022-11-23T03:00:38.731Z,4.55
2022-11-23T03:00:50.728Z,6.18
2022-11-23T03:01:02.758Z,6.90
2022-11-23T03:01:14.731Z,5.28
2022-11-23T03:01:28.115Z,4.55
2022-11-23T03:01:40.331Z,3.97
2022-11-23T03:01:53.193Z,4.80
2022-11-23T03:02:06.076Z,4.00
2022-11-23T03:02:17.999Z,3.80